Time;durP1;ratioP1;P1;durP2;ratioP2;P2;SDS_P1;SDS_P2;PMS_P1;PMS_P2;Temp;Humidity;BMP_temperature;BMP_pressure;BME280_temperature;BME280_humidity;BME280_pressure;Samples;Min_cycle;Max_cycle;Signal;HPM_P1;HPM_P2
2021/09/05 00:01:55;;;;;;;0.00;0.00;;;14.50;62.50;;;;;;5034443;28;20037;-74
2021/09/05 00:04:21;;;;;;;0.00;0.00;;;14.50;62.60;;;;;;5035049;28;20025;-74
2021/09/05 00:06:47;;;;;;;0.00;0.00;;;14.50;62.60;;;;;;5034430;28;20032;-74
2021/09/05 00:09:12;;;;;;;0.00;0.00;;;14.50;62.70;;;;;;5034485;28;20025;-74
2021/09/05 00:11:38;;;;;;;0.00;0.00;;;14.40;62.80;;;;;;5034290;28;20022;-75
2021/09/05 00:14:04;;;;;;;0.00;0.00;;;14.30;62.70;;;;;;5034904;28;20370;-75
2021/09/05 00:16:30;;;;;;;0.00;0.00;;;14.10;62.90;;;;;;5034187;28;20456;-74
2021/09/05 00:18:59;;;;;;;0.00;0.00;;;14.00;63.10;;;;;;5049518;28;20032;-74
2021/09/05 00:21:26;;;;;;;0.00;0.00;;;13.80;63.60;;;;;;5034487;28;20505;-74
2021/09/05 00:23:52;;;;;;;0.00;0.00;;;13.80;63.70;;;;;;5034377;28;20470;-73
2021/09/05 00:26:18;;;;;;;0.00;0.00;;;13.80;63.90;;;;;;5034120;28;20032;-73
2021/09/05 00:28:44;;;;;;;0.00;0.00;;;13.70;64.00;;;;;;5034423;28;20108;-74
2021/09/05 00:31:09;;;;;;;0.00;0.00;;;13.70;63.90;;;;;;5034367;28;20100;-73
2021/09/05 00:33:36;;;;;;;0.00;0.00;;;13.70;63.90;;;;;;5034332;28;20037;-73
2021/09/05 00:36:01;;;;;;;0.00;0.00;;;13.70;63.80;;;;;;5032921;28;20034;-75
2021/09/05 00:38:27;;;;;;;0.00;0.00;;;13.70;63.80;;;;;;5032964;28;20436;-74
2021/09/05 00:40:53;;;;;;;0.00;0.00;;;13.80;63.60;;;;;;5032931;28;20042;-75
2021/09/05 00:43:18;;;;;;;0.00;0.00;;;13.70;63.30;;;;;;5034256;28;20029;-74
2021/09/05 00:45:44;;;;;;;0.00;0.00;;;13.60;63.30;;;;;;5034134;28;20025;-74
2021/09/05 00:48:10;;;;;;;0.00;0.00;;;13.60;63.40;;;;;;5034137;28;20025;-74
2021/09/05 00:50:36;;;;;;;0.00;0.00;;;13.60;63.30;;;;;;5033806;28;20030;-75
2021/09/05 00:53:04;;;;;;;0.00;0.00;;;13.60;63.20;;;;;;5034242;28;20049;-74
2021/09/05 00:55:35;;;;;;;0.00;0.00;;;13.60;63.10;;;;;;5033668;28;20029;-75
2021/09/05 00:58:00;;;;;;;0.00;0.00;;;13.70;63.80;;;;;;5033154;28;20033;-74
2021/09/05 01:00:26;;;;;;;0.00;0.00;;;13.70;63.10;;;;;;5033956;28;20032;-74
2021/09/05 01:02:52;;;;;;;0.00;0.00;;;13.70;62.90;;;;;;5032648;28;20041;-74
2021/09/05 01:05:18;;;;;;;0.00;0.00;;;13.70;62.70;;;;;;5033870;28;20442;-74
2021/09/05 01:07:44;;;;;;;0.00;0.00;;;13.70;62.60;;;;;;5033829;28;20025;-74
2021/09/05 01:10:12;;;;;;;0.00;0.00;;;13.70;62.60;;;;;;5033700;28;20382;-74
2021/09/05 01:12:38;;;;;;;0.00;0.00;;;13.70;62.80;;;;;;5033779;28;20028;-74
2021/09/05 01:15:05;;;;;;;0.00;0.00;;;13.70;62.70;;;;;;5034222;28;20454;-74
2021/09/05 01:17:36;;;;;;;0.00;0.00;;;13.70;62.70;;;;;;5034004;28;20403;-74
2021/09/05 01:20:05;;;;;;;0.00;0.00;;;13.70;62.80;;;;;;5033433;28;20030;-74
2021/09/05 01:22:31;;;;;;;0.00;0.00;;;13.60;63.00;;;;;;5034009;28;20481;-74
2021/09/05 01:24:57;;;;;;;0.00;0.00;;;13.60;63.10;;;;;;5033724;28;20036;-75
2021/09/05 01:27:22;;;;;;;0.00;0.00;;;13.60;63.30;;;;;;5033640;28;20096;-75
2021/09/05 01:29:48;;;;;;;0.00;0.00;;;13.50;63.50;;;;;;5033351;28;20424;-73
2021/09/05 01:32:14;;;;;;;0.00;0.00;;;13.50;63.60;;;;;;5033666;28;20426;-75
2021/09/05 01:34:40;;;;;;;0.00;0.00;;;13.50;63.70;;;;;;5033563;28;20038;-74
2021/09/05 01:37:05;;;;;;;0.00;0.00;;;13.50;64.00;;;;;;5034082;28;20037;-74
2021/09/05 01:39:31;;;;;;;0.00;0.00;;;13.50;64.20;;;;;;5034091;28;20021;-75
2021/09/05 01:41:57;;;;;;;0.00;0.00;;;13.40;64.30;;;;;;5033773;28;20468;-73
2021/09/05 01:44:23;;;;;;;0.00;0.00;;;13.40;64.40;;;;;;5033517;28;20029;-74
2021/09/05 01:46:50;;;;;;;0.00;0.00;;;13.40;64.40;;;;;;5033795;28;20025;-74
2021/09/05 01:49:16;;;;;;;0.00;0.00;;;13.40;64.40;;;;;;5033510;28;20030;-74
2021/09/05 01:51:42;;;;;;;0.00;0.00;;;13.40;64.30;;;;;;5033664;28;20025;-72
2021/09/05 01:54:08;;;;;;;0.00;0.00;;;13.40;64.30;;;;;;5033650;28;20461;-74
2021/09/05 01:56:34;;;;;;;0.00;0.00;;;13.40;64.10;;;;;;5033606;28;20033;-74
2021/09/05 01:59:01;;;;;;;0.00;0.00;;;13.40;64.10;;;;;;5033471;28;20049;-73
2021/09/05 02:01:28;;;;;;;0.00;0.00;;;13.40;64.00;;;;;;5032029;28;20060;-74
2021/09/05 02:03:55;;;;;;;0.00;0.00;;;13.40;63.90;;;;;;5033049;28;20032;-74
2021/09/05 02:06:21;;;;;;;0.00;0.00;;;13.30;63.80;;;;;;5032996;28;20083;-75
2021/09/05 02:08:46;;;;;;;0.00;0.00;;;13.30;63.70;;;;;;5031955;28;20026;-74
2021/09/05 02:11:13;;;;;;;0.00;0.00;;;13.30;63.70;;;;;;5033204;28;20029;-74
2021/09/05 02:13:39;;;;;;;0.00;0.00;;;13.30;63.60;;;;;;5033251;28;20061;-74
2021/09/05 02:16:06;;;;;;;0.00;0.00;;;13.20;63.60;;;;;;5032638;28;20045;-74
2021/09/05 02:18:32;;;;;;;0.00;0.00;;;13.20;63.60;;;;;;5033166;28;20101;-74
2021/09/05 02:20:58;;;;;;;0.00;0.00;;;13.20;63.60;;;;;;5033173;28;20417;-73
2021/09/05 02:23:24;;;;;;;0.00;0.00;;;13.20;63.60;;;;;;5033166;28;20025;-74
2021/09/05 02:25:50;;;;;;;0.00;0.00;;;13.10;63.70;;;;;;5033155;28;20033;-73
2021/09/05 02:28:16;;;;;;;0.00;0.00;;;13.10;63.80;;;;;;5033084;28;20017;-74
2021/09/05 02:30:41;;;;;;;0.00;0.00;;;13.10;63.80;;;;;;5035948;28;20039;-74
2021/09/05 02:33:07;;;;;;;0.00;0.00;;;13.10;63.80;;;;;;5036634;28;20021;-74
2021/09/05 02:35:33;;;;;;;0.00;0.00;;;13.10;63.90;;;;;;5036457;28;20026;-75
2021/09/05 02:37:59;;;;;;;0.00;0.00;;;13.10;63.90;;;;;;5036433;28;20029;-74
2021/09/05 02:40:25;;;;;;;0.00;0.00;;;13.20;64.00;;;;;;5036738;28;20029;-74
2021/09/05 02:42:51;;;;;;;0.00;0.00;;;13.20;63.90;;;;;;5035151;28;20025;-74
2021/09/05 02:45:16;;;;;;;0.00;0.00;;;13.20;64.00;;;;;;5036737;28;20036;-74
2021/09/05 02:47:42;;;;;;;0.00;0.00;;;13.20;64.00;;;;;;5036355;28;20033;-74
2021/09/05 02:50:09;;;;;;;0.00;0.00;;;13.20;64.00;;;;;;5036612;28;20339;-75
2021/09/05 02:52:34;;;;;;;0.00;0.00;;;13.10;64.00;;;;;;5036500;28;20076;-75
2021/09/05 02:55:00;;;;;;;0.00;0.00;;;13.10;64.00;;;;;;5034940;28;20057;-74
2021/09/05 02:57:26;;;;;;;0.00;0.00;;;13.10;64.20;;;;;;5035855;28;20505;-74
2021/09/05 02:59:52;;;;;;;0.00;0.00;;;13.00;64.30;;;;;;5036431;28;20034;-74
2021/09/05 03:02:17;;;;;;;0.00;0.00;;;13.00;64.50;;;;;;5035834;28;20026;-75
2021/09/05 03:04:43;;;;;;;0.00;0.00;;;12.90;64.60;;;;;;5036343;28;20037;-75
2021/09/05 03:07:09;;;;;;;0.00;0.00;;;12.90;64.80;;;;;;5035693;28;20032;-75
2021/09/05 03:09:35;;;;;;;0.00;0.00;;;12.90;64.80;;;;;;5035916;28;20061;-74
2021/09/05 03:12:01;;;;;;;0.00;0.00;;;12.90;64.90;;;;;;5051099;28;20036;-75
2021/09/05 03:14:27;;;;;;;0.00;0.00;;;12.80;64.90;;;;;;5035527;28;20080;-74
2021/09/05 03:16:52;;;;;;;0.00;0.00;;;12.80;64.80;;;;;;5035514;28;20473;-75
2021/09/05 03:19:18;;;;;;;0.00;0.00;;;12.80;64.80;;;;;;5035487;28;20053;-74
2021/09/05 03:21:46;;;;;;;0.00;0.00;;;12.80;64.80;;;;;;5035947;28;20034;-75
2021/09/05 03:24:12;;;;;;;0.00;0.00;;;12.80;64.80;;;;;;5034077;28;20063;-75
2021/09/05 03:26:38;;;;;;;0.00;0.00;;;12.80;64.80;;;;;;5035552;28;20022;-74
2021/09/05 03:29:04;;;;;;;0.00;0.00;;;12.80;64.80;;;;;;5034326;28;20034;-75
2021/09/05 03:31:30;;;;;;;0.10;0.10;;;12.70;64.80;;;;;;5035451;28;20064;-76
2021/09/05 03:33:55;;;;;;;0.00;0.00;;;12.80;64.80;;;;;;5035396;28;20053;-75
2021/09/05 03:36:21;;;;;;;0.10;0.00;;;12.80;64.90;;;;;;5035385;28;20112;-74
2021/09/05 03:38:47;;;;;;;0.00;0.00;;;12.70;65.00;;;;;;5034044;28;20497;-75
2021/09/05 03:41:12;;;;;;;0.00;0.00;;;12.80;65.20;;;;;;5035220;28;20025;-74
2021/09/05 03:43:39;;;;;;;0.00;0.00;;;12.80;65.40;;;;;;5035302;28;20025;-74
2021/09/05 03:46:04;;;;;;;0.00;0.00;;;12.80;65.60;;;;;;5034998;28;20032;-75
2021/09/05 03:48:30;;;;;;;0.00;0.00;;;12.80;65.80;;;;;;5034858;28;20033;-75
2021/09/05 03:50:56;;;;;;;0.00;0.00;;;12.90;65.90;;;;;;5035414;28;20420;-75
2021/09/05 03:53:22;;;;;;;0.00;0.00;;;12.90;65.90;;;;;;5033472;28;20045;-75
2021/09/05 03:55:48;;;;;;;0.00;0.00;;;12.90;65.90;;;;;;5034690;28;20065;-75
2021/09/05 03:58:13;;;;;;;0.00;0.00;;;13.00;66.00;;;;;;5035027;28;20030;-75
2021/09/05 04:00:39;;;;;;;0.00;0.00;;;13.00;66.00;;;;;;5034919;28;20528;-76
2021/09/05 04:03:05;;;;;;;0.00;0.00;;;13.00;66.00;;;;;;5035172;28;20531;-75
2021/09/05 04:05:31;;;;;;;0.00;0.00;;;13.00;65.90;;;;;;5033568;28;20087;-75
2021/09/05 04:10:35;;;;;;;0.00;0.00;;;13.10;65.90;;;;;;5035222;28;20095;-74
2021/09/05 04:13:02;;;;;;;0.00;0.00;;;13.10;65.90;;;;;;5034692;28;20034;-75
2021/09/05 04:15:28;;;;;;;0.00;0.00;;;13.20;65.90;;;;;;5034754;28;20026;-76
2021/09/05 04:17:55;;;;;;;0.00;0.00;;;13.20;65.80;;;;;;5034688;28;20033;-75
2021/09/05 04:20:21;;;;;;;0.10;0.00;;;13.20;65.80;;;;;;5034854;28;20436;-75
2021/09/05 04:22:47;;;;;;;0.00;0.00;;;13.30;65.80;;;;;;5034517;28;20105;-75
2021/09/05 04:25:14;;;;;;;0.00;0.00;;;13.30;65.60;;;;;;5034454;28;20108;-75
2021/09/05 04:27:40;;;;;;;0.00;0.00;;;13.40;65.60;;;;;;5034264;28;20053;-75
2021/09/05 04:30:07;;;;;;;0.00;0.00;;;13.50;65.50;;;;;;5034101;28;20104;-74
2021/09/05 04:32:34;;;;;;;0.00;0.00;;;13.60;65.60;;;;;;5034273;28;20071;-75
2021/09/05 04:35:00;;;;;;;0.00;0.00;;;13.60;65.50;;;;;;5034187;28;20041;-75
2021/09/05 04:37:26;;;;;;;0.00;0.00;;;13.70;65.50;;;;;;5034140;28;20040;-74
2021/09/05 04:39:53;;;;;;;0.00;0.00;;;13.70;65.40;;;;;;5034122;28;20025;-75
2021/09/05 04:42:19;;;;;;;0.00;0.00;;;13.80;65.30;;;;;;5034308;28;20373;-75
2021/09/05 04:44:45;;;;;;;0.00;0.00;;;13.80;65.30;;;;;;5032612;28;20076;-75
2021/09/05 04:47:11;;;;;;;0.00;0.00;;;13.80;65.30;;;;;;5049477;28;20033;-75
2021/09/05 04:49:37;;;;;;;0.03;0.00;;;13.90;65.40;;;;;;5034000;28;20021;-76
2021/09/05 04:52:03;;;;;;;0.00;0.00;;;13.90;65.40;;;;;;5048438;28;21219;-76
2021/09/05 04:54:29;;;;;;;0.00;0.00;;;14.00;65.50;;;;;;5033188;28;20061;-75
2021/09/05 04:56:55;;;;;;;0.00;0.00;;;14.00;65.50;;;;;;5033665;28;20550;-76
2021/09/05 04:59:21;;;;;;;0.00;0.00;;;14.10;65.50;;;;;;5033618;28;20025;-76
2021/09/05 05:01:46;;;;;;;0.00;0.00;;;14.10;65.40;;;;;;5032585;28;20032;-76
2021/09/05 05:04:14;;;;;;;0.00;0.00;;;14.10;65.20;;;;;;5049176;28;20064;-75
2021/09/05 05:06:41;;;;;;;0.00;0.00;;;14.20;64.80;;;;;;5033357;28;20043;-75
2021/09/05 05:09:08;;;;;;;0.00;0.00;;;14.20;64.50;;;;;;5032835;28;20035;-75
2021/09/05 05:11:34;;;;;;;0.00;0.00;;;14.30;64.20;;;;;;5033807;28;20075;-76
2021/09/05 05:14:00;;;;;;;0.00;0.00;;;14.40;63.90;;;;;;5032423;28;20030;-75
2021/09/05 05:16:29;;;;;;;0.00;0.00;;;14.40;63.40;;;;;;5034199;28;20030;-74
2021/09/05 05:18:58;;;;;;;0.00;0.00;;;14.50;63.00;;;;;;5033435;28;20385;-76
2021/09/05 05:21:26;;;;;;;0.00;0.00;;;14.60;62.80;;;;;;5033252;28;20033;-76
2021/09/05 05:23:53;;;;;;;0.00;0.00;;;14.60;62.40;;;;;;5032056;28;20049;-76
2021/09/05 05:26:18;;;;;;;0.00;0.00;;;14.70;62.10;;;;;;5033683;28;20053;-76
2021/09/05 05:28:44;;;;;;;0.00;0.00;;;14.70;62.00;;;;;;5033722;28;20061;-76
2021/09/05 05:31:10;;;;;;;0.00;0.00;;;14.80;61.90;;;;;;5033367;28;20026;-76
2021/09/05 05:33:37;;;;;;;0.00;0.00;;;14.80;61.60;;;;;;5033619;28;20466;-76
2021/09/05 05:36:03;;;;;;;0.00;0.00;;;14.80;61.40;;;;;;5032237;28;20037;-76
2021/09/05 05:38:29;;;;;;;0.00;0.00;;;14.90;61.30;;;;;;5033502;28;20037;-76
2021/09/05 05:40:55;;;;;;;0.00;0.00;;;14.90;61.00;;;;;;5032160;28;20095;-76
2021/09/05 05:43:20;;;;;;;0.00;0.00;;;14.90;61.10;;;;;;5033275;28;20026;-78
2021/09/05 05:45:46;;;;;;;0.00;0.00;;;14.90;61.10;;;;;;5032190;28;20538;-75
2021/09/05 05:48:13;;;;;;;0.00;0.00;;;14.90;61.10;;;;;;5033763;28;20033;-76
2021/09/05 05:50:39;;;;;;;0.00;0.00;;;14.90;61.00;;;;;;5033871;28;20059;-76
2021/09/05 05:53:04;;;;;;;0.00;0.00;;;15.00;61.00;;;;;;5033322;28;20572;-76
2021/09/05 05:55:39;;;;;;;0.00;0.00;;;15.00;60.50;;;;;;5032966;28;20108;-76
2021/09/05 05:58:07;;;;;;;0.00;0.00;;;15.10;60.30;;;;;;5033127;28;20089;-77
2021/09/05 06:00:35;;;;;;;0.00;0.00;;;15.10;60.40;;;;;;5032978;28;20024;-79
2021/09/05 06:03:02;;;;;;;0.00;0.00;;;15.10;60.10;;;;;;5031601;28;20386;-76
2021/09/05 06:05:27;;;;;;;0.00;0.00;;;15.20;59.70;;;;;;5036765;28;20029;-77
2021/09/05 06:07:53;;;;;;;0.00;0.00;;;15.20;59.40;;;;;;5037169;28;20033;-75
2021/09/05 06:10:19;;;;;;;0.00;0.00;;;15.30;59.30;;;;;;5036731;28;20021;-75
2021/09/05 06:12:45;;;;;;;0.00;0.00;;;15.40;59.10;;;;;;5037128;28;20032;-77
2021/09/05 06:15:11;;;;;;;0.00;0.00;;;15.40;58.90;;;;;;5037538;28;20032;-75
2021/09/05 06:17:37;;;;;;;0.00;0.00;;;15.50;58.60;;;;;;5035983;28;20032;-76
2021/09/05 06:20:05;;;;;;;0.00;0.00;;;15.60;58.30;;;;;;5035454;28;20030;-76
2021/09/05 06:22:30;;;;;;;0.00;0.00;;;15.70;58.00;;;;;;5036931;28;20436;-75
2021/09/05 06:24:56;;;;;;;0.00;0.00;;;15.70;57.90;;;;;;5037254;28;20029;-76
2021/09/05 06:27:22;;;;;;;0.00;0.00;;;15.80;57.50;;;;;;5036640;28;20378;-76
2021/09/05 06:29:47;;;;;;;0.00;0.00;;;15.80;57.30;;;;;;5035235;28;20104;-76
2021/09/05 06:32:13;;;;;;;0.00;0.00;;;15.90;57.30;;;;;;5036977;28;20517;-76
2021/09/05 06:34:39;;;;;;;0.00;0.00;;;16.00;57.70;;;;;;5036136;28;20052;-76
2021/09/05 06:37:05;;;;;;;0.00;0.00;;;16.10;56.90;;;;;;5036469;28;20113;-76
2021/09/05 06:39:30;;;;;;;0.00;0.00;;;16.10;56.70;;;;;;5036752;28;20081;-76
2021/09/05 06:41:58;;;;;;;0.00;0.00;;;16.20;56.40;;;;;;5036213;28;20026;-77
2021/09/05 06:44:24;;;;;;;0.00;0.00;;;16.30;55.90;;;;;;5036717;28;20030;-75
2021/09/05 06:46:50;;;;;;;0.00;0.00;;;16.30;55.60;;;;;;5035455;28;20025;-75
2021/09/05 06:49:16;;;;;;;0.00;0.00;;;16.30;55.60;;;;;;5035216;28;20413;-75
2021/09/05 06:51:42;;;;;;;0.00;0.00;;;16.40;55.50;;;;;;5035829;28;20021;-75
2021/09/05 06:54:07;;;;;;;0.00;0.00;;;16.50;55.40;;;;;;5035758;28;20021;-75
2021/09/05 06:56:33;;;;;;;0.00;0.00;;;16.50;55.20;;;;;;5036437;28;20025;-75
2021/09/05 06:58:59;;;;;;;0.00;0.00;;;16.50;55.30;;;;;;5036073;28;20083;-75
2021/09/05 07:01:25;;;;;;;0.00;0.00;;;16.60;55.30;;;;;;5035170;28;20032;-76
2021/09/05 07:03:51;;;;;;;0.00;0.00;;;16.70;55.20;;;;;;5036168;28;20051;-75
2021/09/05 07:06:16;;;;;;;0.00;0.00;;;16.80;54.50;;;;;;5036047;28;20036;-77
2021/09/05 07:08:42;;;;;;;0.00;0.00;;;16.80;54.20;;;;;;5035794;28;20026;-75
2021/09/05 07:11:08;;;;;;;0.00;0.00;;;16.80;54.00;;;;;;5036142;28;20026;-75
2021/09/05 07:13:33;;;;;;;0.00;0.00;;;16.80;54.00;;;;;;5035356;28;20523;-75
2021/09/05 07:15:59;;;;;;;0.00;0.00;;;17.00;54.10;;;;;;5034519;28;20034;-75
2021/09/05 07:18:25;;;;;;;0.00;0.00;;;17.00;53.90;;;;;;5035636;28;20041;-75
2021/09/05 07:20:51;;;;;;;0.00;0.00;;;17.10;53.70;;;;;;5035859;28;20036;-76
2021/09/05 07:23:16;;;;;;;0.00;0.00;;;17.10;53.70;;;;;;5035553;28;20033;-75
2021/09/05 07:25:42;;;;;;;0.00;0.00;;;17.20;53.70;;;;;;5036087;28;20029;-76
2021/09/05 07:28:08;;;;;;;0.00;0.00;;;17.30;53.40;;;;;;5034174;28;20037;-75
2021/09/05 07:30:34;;;;;;;0.00;0.00;;;17.40;52.90;;;;;;5035434;28;20037;-77
2021/09/05 07:33:00;;;;;;;0.00;0.00;;;17.50;52.70;;;;;;5035636;28;20053;-75
2021/09/05 07:35:25;;;;;;;0.00;0.00;;;17.60;52.40;;;;;;5035224;28;20184;-75
2021/09/05 07:37:51;;;;;;;0.00;0.00;;;17.80;51.70;;;;;;5035436;28;20033;-76
2021/09/05 07:40:19;;;;;;;0.00;0.00;;;17.90;50.80;;;;;;5035098;28;20032;-76
2021/09/05 07:42:45;;;;;;;0.00;0.00;;;18.00;50.90;;;;;;5035151;28;20116;-76
2021/09/05 07:45:12;;;;;;;0.00;0.00;;;18.20;50.70;;;;;;5034753;28;20383;-75
2021/09/05 07:47:38;;;;;;;0.00;0.00;;;18.40;50.20;;;;;;5034789;28;20465;-78
2021/09/05 07:50:06;;;;;;;0.00;0.00;;;18.60;49.90;;;;;;5033657;28;20036;-75
2021/09/05 07:52:47;;;;;;;0.00;0.00;;;18.90;49.30;;;;;;5035555;28;20087;-76
2021/09/05 07:55:16;;;;;;;0.00;0.00;;;19.10;48.40;;;;;;5034176;28;20056;-74
2021/09/05 07:58:00;;;;;;;0.00;0.00;;;19.20;48.20;;;;;;5035086;28;20033;-74
2021/09/05 08:00:46;;;;;;;0.00;0.00;;;19.40;47.50;;;;;;5034664;28;20401;-76
2021/09/05 08:03:11;;;;;;;0.00;0.00;;;19.70;47.40;;;;;;5034754;28;20099;-76
2021/09/05 08:05:37;;;;;;;0.00;0.00;;;19.90;47.10;;;;;;5034578;28;20428;-75
2021/09/05 08:08:03;;;;;;;0.00;0.00;;;20.10;46.80;;;;;;5034966;28;20025;-75
2021/09/05 08:10:29;;;;;;;0.00;0.00;;;20.40;46.60;;;;;;5034729;28;20108;-76
2021/09/05 08:12:56;;;;;;;0.00;0.00;;;20.60;45.80;;;;;;5033466;28;20036;-75
2021/09/05 08:15:22;;;;;;;0.00;0.00;;;20.90;44.90;;;;;;5034713;28;20029;-77
2021/09/05 08:17:47;;;;;;;0.00;0.00;;;21.10;44.40;;;;;;5034601;28;20480;-76
2021/09/05 08:20:14;;;;;;;0.00;0.00;;;21.40;44.00;;;;;;5034700;28;20079;-76
2021/09/05 08:22:48;;;;;;;0.00;0.00;;;21.70;43.40;;;;;;5034386;28;20021;-74
2021/09/05 08:25:15;;;;;;;0.00;0.00;;;22.00;42.90;;;;;;5033603;28;20469;-75
2021/09/05 08:27:41;;;;;;;0.00;0.00;;;22.30;42.70;;;;;;5034027;28;20079;-77
2021/09/05 08:30:07;;;;;;;0.00;0.00;;;22.60;42.20;;;;;;5033948;28;20564;-77
2021/09/05 08:32:33;;;;;;;0.00;0.00;;;22.90;41.70;;;;;;5034855;28;20110;-77
2021/09/05 08:34:59;;;;;;;0.00;0.00;;;23.10;41.10;;;;;;5034248;28;20114;-75
2021/09/05 08:37:24;;;;;;;0.00;0.00;;;23.30;40.80;;;;;;5033824;28;20040;-77
2021/09/05 08:39:51;;;;;;;0.00;0.00;;;23.60;40.70;;;;;;5034026;28;20480;-79
2021/09/05 08:42:16;;;;;;;0.00;0.00;;;23.90;40.20;;;;;;5034810;28;20031;-76
2021/09/05 08:44:43;;;;;;;0.00;0.00;;;24.30;39.90;;;;;;5034104;28;20104;-76
2021/09/05 08:47:09;;;;;;;0.00;0.00;;;24.90;39.50;;;;;;5033913;28;20026;-77
2021/09/05 08:49:36;;;;;;;0.00;0.00;;;25.30;39.00;;;;;;5033087;28;20033;-76
2021/09/05 08:52:04;;;;;;;0.00;0.00;;;25.70;38.10;;;;;;5033513;28;20474;-75
2021/09/05 08:54:30;;;;;;;0.00;0.00;;;26.00;37.40;;;;;;5034071;28;20037;-76
2021/09/05 08:56:57;;;;;;;0.00;0.00;;;26.30;36.60;;;;;;5032529;28;20045;-77
2021/09/05 08:59:23;;;;;;;0.00;0.00;;;26.50;36.10;;;;;;5033747;28;20484;-75
2021/09/05 09:01:59;;;;;;;0.00;0.00;;;26.80;35.60;;;;;;5034021;28;20029;-76
2021/09/05 09:04:34;;;;;;;0.00;0.00;;;27.10;35.10;;;;;;5033695;28;20038;-76
2021/09/05 09:07:14;;;;;;;0.00;0.00;;;27.50;35.00;;;;;;5033603;28;20079;-75
2021/09/05 09:10:03;;;;;;;0.00;0.00;;;27.80;34.00;;;;;;5033911;28;20024;-77
2021/09/05 09:12:39;;;;;;;0.00;0.00;;;28.00;33.20;;;;;;5033855;28;20071;-75
2021/09/05 09:15:23;;;;;;;0.00;0.00;;;28.00;32.70;;;;;;5048739;28;20033;-77
2021/09/05 09:17:58;;;;;;;0.00;0.00;;;28.00;32.60;;;;;;5033110;28;20026;-75
2021/09/05 09:20:43;;;;;;;0.00;0.00;;;28.00;32.70;;;;;;5033654;28;20541;-75
2021/09/05 09:23:17;;;;;;;0.00;0.00;;;28.10;32.10;;;;;;5033366;28;20034;-77
2021/09/05 09:26:01;;;;;;;0.00;0.00;;;28.20;32.00;;;;;;5033370;28;20413;-77
2021/09/05 09:28:46;;;;;;;0.00;0.00;;;28.50;31.80;;;;;;5033216;28;20386;-77
2021/09/05 09:31:13;;;;;;;0.00;0.00;;;28.80;31.50;;;;;;5031899;28;20025;-76
2021/09/05 09:33:40;;;;;;;0.00;0.00;;;29.20;31.50;;;;;;5033208;28;20036;-75
2021/09/05 09:36:07;;;;;;;0.00;0.00;;;29.50;31.30;;;;;;5033249;28;20099;-77
2021/09/05 09:38:33;;;;;;;0.00;0.00;;;29.90;31.00;;;;;;5033725;28;20454;-75
2021/09/05 09:41:13;;;;;;;0.00;0.00;;;30.10;30.50;;;;;;5037243;28;20022;-75
2021/09/05 09:43:51;;;;;;;0.00;0.00;;;30.40;30.30;;;;;;5037596;28;20373;-75
2021/09/05 09:46:22;;;;;;;0.00;0.00;;;30.70;30.00;;;;;;5037605;28;20061;-75
2021/09/05 09:48:50;;;;;;;0.00;0.00;;;30.90;29.90;;;;;;5037398;28;20361;-77
2021/09/05 09:51:17;;;;;;;0.00;0.00;;;31.20;29.90;;;;;;5035620;28;20021;-76
2021/09/05 09:53:44;;;;;;;0.00;0.00;;;31.50;29.70;;;;;;5037870;28;20220;-76
2021/09/05 09:56:11;;;;;;;0.00;0.00;;;31.50;29.50;;;;;;5037115;28;20473;-77
2021/09/05 09:58:37;;;;;;;0.00;0.00;;;31.70;29.40;;;;;;5037073;28;20029;-76
2021/09/05 10:01:04;;;;;;;0.00;0.00;;;31.90;29.60;;;;;;5036785;28;20491;-76
2021/09/05 10:03:31;;;;;;;0.00;0.00;;;32.20;29.40;;;;;;5036944;28;20025;-75
2021/09/05 10:06:01;;;;;;;0.00;0.00;;;32.60;29.30;;;;;;5036626;28;20044;-74
2021/09/05 10:08:33;;;;;;;0.00;0.00;;;33.10;29.00;;;;;;5036232;28;20079;-76
2021/09/05 10:10:59;;;;;;;0.00;0.00;;;33.60;28.90;;;;;;5035185;28;20029;-75
2021/09/05 10:13:33;;;;;;;0.00;0.00;;;34.00;28.80;;;;;;5037348;28;20358;-75
2021/09/05 10:16:00;;;;;;;0.00;0.00;;;34.30;28.30;;;;;;5035486;28;20370;-75
2021/09/05 10:18:27;;;;;;;0.00;0.00;;;34.60;28.40;;;;;;5035459;28;20038;-75
2021/09/05 10:20:58;;;;;;;0.00;0.00;;;34.90;28.20;;;;;;5036757;28;20025;-75
2021/09/05 10:23:32;;;;;;;0.00;0.00;;;35.30;28.10;;;;;;5036954;28;20075;-75
2021/09/05 10:26:10;;;;;;;0.00;0.00;;;35.80;27.90;;;;;;5036647;28;20078;-76
2021/09/05 10:28:41;;;;;;;0.00;0.00;;;36.20;27.70;;;;;;5036659;28;20022;-75
2021/09/05 10:31:08;;;;;;;0.00;0.00;;;36.60;27.50;;;;;;5036845;28;20030;-74
2021/09/05 10:33:37;;;;;;;0.00;0.00;;;36.90;27.50;;;;;;5036168;28;20385;-75
2021/09/05 10:36:11;;;;;;;0.00;0.00;;;37.30;27.40;;;;;;5036353;28;20083;-75
2021/09/05 10:38:40;;;;;;;0.00;0.00;;;37.70;27.30;;;;;;5036520;28;20076;-76
2021/09/05 10:41:15;;;;;;;0.00;0.00;;;38.00;27.20;;;;;;5036530;28;20029;-75
2021/09/05 10:44:06;;;;;;;0.00;0.00;;;38.40;27.10;;;;;;5036461;28;20025;-75
2021/09/05 10:46:39;;;;;;;0.00;0.00;;;38.80;26.80;;;;;;5032379;28;20091;-74
2021/09/05 10:49:05;;;;;;;0.10;0.10;;;38.00;26.50;;;;;;5036314;28;20202;-75
2021/09/05 10:51:35;;;;;;;0.00;0.00;;;37.00;26.60;;;;;;5035064;28;20022;-74
2021/09/05 10:54:09;;;;;;;0.00;0.00;;;37.00;26.60;;;;;;5036438;28;20039;-75
2021/09/05 10:56:44;;;;;;;0.00;0.00;;;37.50;26.50;;;;;;5036281;28;20164;-74
2021/09/05 10:59:12;;;;;;;0.00;0.00;;;38.20;26.50;;;;;;5034741;28;20057;-74
2021/09/05 11:01:56;;;;;;;0.00;0.00;;;38.80;26.60;;;;;;5035968;28;20385;-75
2021/09/05 11:04:28;;;;;;;0.00;0.00;;;39.50;26.20;;;;;;5036536;28;20024;-75
2021/09/05 11:07:06;;;;;;;0.00;0.00;;;39.90;25.90;;;;;;5035853;28;20049;-75
2021/09/05 11:09:31;;;;;;;0.00;0.00;;;39.10;26.10;;;;;;5035745;28;20263;-75
2021/09/05 11:12:23;;;;;;;0.00;0.00;;;38.70;25.80;;;;;;5035323;28;20028;-74
2021/09/05 11:14:50;;;;;;;0.00;0.00;;;38.70;25.70;;;;;;5035475;28;20029;-75
2021/09/05 11:17:19;;;;;;;0.05;0.05;;;39.10;25.90;;;;;;5035590;28;20072;-75
2021/09/05 11:19:48;;;;;;;0.00;0.00;;;39.50;25.70;;;;;;5035535;28;20028;-75
2021/09/05 11:22:19;;;;;;;0.00;0.00;;;40.10;25.50;;;;;;5035280;28;20048;-75
2021/09/05 11:24:46;;;;;;;0.00;0.00;;;40.30;25.10;;;;;;5035528;28;20047;-75
2021/09/05 11:27:14;;;;;;;0.00;0.00;;;40.00;25.00;;;;;;5035173;28;20512;-74
2021/09/05 11:29:40;;;;;;;0.00;0.00;;;39.40;24.90;;;;;;5034704;28;20026;-74
2021/09/05 11:32:13;;;;;;;0.00;0.00;;;37.70;25.10;;;;;;5035235;28;20120;-75
2021/09/05 11:34:51;;;;;;;0.00;0.00;;;36.80;25.40;;;;;;5035288;28;20029;-74
2021/09/05 11:37:32;;;;;;;0.00;0.00;;;37.20;25.80;;;;;;5034093;28;20037;-74
2021/09/05 11:40:08;;;;;;;0.00;0.00;;;38.10;25.70;;;;;;5035406;28;20018;-74
2021/09/05 11:42:34;;;;;;;0.00;0.00;;;38.90;25.60;;;;;;5034973;28;20026;-74
2021/09/05 11:45:11;;;;;;;0.00;0.00;;;39.50;25.60;;;;;;5035152;28;20033;-77
2021/09/05 11:47:38;;;;;;;0.00;0.00;;;40.30;25.40;;;;;;5035661;28;20025;-75
2021/09/05 11:50:05;;;;;;;0.00;0.00;;;41.00;25.30;;;;;;5036365;28;20021;-75
2021/09/05 11:52:33;;;;;;;0.00;0.00;;;41.50;25.00;;;;;;5034968;28;20051;-76
2021/09/05 11:55:15;;;;;;;0.00;0.00;;;41.90;24.80;;;;;;5035255;28;20496;-76
2021/09/05 11:58:05;;;;;;;0.00;0.00;;;41.90;24.50;;;;;;5034637;28;20033;-76
2021/09/05 12:00:34;;;;;;;0.00;0.00;;;40.50;24.40;;;;;;5035348;28;20335;-77
2021/09/05 12:03:03;;;;;;;0.00;0.00;;;38.80;24.60;;;;;;5034902;28;20045;-76
2021/09/05 12:05:29;;;;;;;0.00;0.00;;;36.90;24.80;;;;;;5034557;28;20473;-77
2021/09/05 12:08:17;;;;;;;0.00;0.00;;;35.90;25.20;;;;;;5034880;28;20569;-76
2021/09/05 12:10:44;;;;;;;0.00;0.00;;;36.20;25.40;;;;;;5035128;28;20489;-74
2021/09/05 12:13:13;;;;;;;0.00;0.00;;;37.10;25.60;;;;;;5033600;28;20040;-76
2021/09/05 12:15:44;;;;;;;0.00;0.00;;;37.00;25.40;;;;;;5031948;28;20026;-75
2021/09/05 12:18:27;;;;;;;0.00;0.00;;;36.70;25.50;;;;;;5034357;28;20374;-76
2021/09/05 12:20:59;;;;;;;0.00;0.00;;;37.40;25.60;;;;;;5035039;28;20032;-78
2021/09/05 12:23:34;;;;;;;0.00;0.00;;;38.30;25.60;;;;;;5034151;28;20048;-76
2021/09/05 12:26:02;;;;;;;0.00;0.00;;;39.20;25.50;;;;;;5035176;28;20030;-76
2021/09/05 12:28:44;;;;;;;0.00;0.00;;;40.20;25.40;;;;;;5033134;28;20056;-76
2021/09/05 12:31:11;;;;;;;0.10;0.10;;;40.90;25.30;;;;;;5034365;28;20075;-77
2021/09/05 12:33:40;;;;;;;0.00;0.00;;;41.30;25.00;;;;;;5033956;28;20021;-76
2021/09/05 12:36:16;;;;;;;0.00;0.00;;;41.40;24.90;;;;;;5033162;28;20033;-76
2021/09/05 12:38:53;;;;;;;0.00;0.00;;;41.50;24.80;;;;;;5034490;28;20377;-77
2021/09/05 12:41:19;;;;;;;0.00;0.00;;;41.60;24.70;;;;;;5034165;28;20025;-76
2021/09/05 12:43:51;;;;;;;0.00;0.00;;;41.90;24.80;;;;;;5032930;28;20117;-77
2021/09/05 12:46:19;;;;;;;0.00;0.00;;;42.20;24.70;;;;;;5034052;28;20037;-76
2021/09/05 12:48:47;;;;;;;0.00;0.00;;;42.40;24.50;;;;;;5034046;28;20090;-77
2021/09/05 12:51:19;;;;;;;0.10;0.10;;;42.60;24.40;;;;;;5034351;28;20053;-76
2021/09/05 12:54:02;;;;;;;0.10;0.10;;;42.90;24.40;;;;;;5033898;28;20051;-76
2021/09/05 12:56:28;;;;;;;0.10;0.10;;;43.10;24.40;;;;;;5034382;28;20045;-76